sensor_id;sensor_type;location;lat;lon;timestamp;P1;durP1;ratioP1;P2;durP2;ratioP2
39728;SDS011;25402;42.004;23.088;2023-07-24T00:00:08;23.30;;;12.43;;
39728;SDS011;25402;42.004;23.088;2023-07-24T00:02:35;24.15;;;12.95;;
39728;SDS011;25402;42.004;23.088;2023-07-24T00:05:03;25.10;;;12.27;;
39728;SDS011;25402;42.004;23.088;2023-07-24T00:07:30;19.02;;;11.40;;
39728;SDS011;25402;42.004;23.088;2023-07-24T00:09:57;26.02;;;12.38;;
39728;SDS011;25402;42.004;23.088;2023-07-24T00:12:25;23.65;;;13.27;;
39728;SDS011;25402;42.004;23.088;2023-07-24T00:14:52;22.08;;;12.65;;
39728;SDS011;25402;42.004;23.088;2023-07-24T00:17:19;24.52;;;12.35;;
39728;SDS011;25402;42.004;23.088;2023-07-24T00:19:46;31.08;;;15.35;;
39728;SDS011;25402;42.004;23.088;2023-07-24T00:22:14;27.48;;;13.65;;
39728;SDS011;25402;42.004;23.088;2023-07-24T00:24:41;29.20;;;14.50;;
39728;SDS011;25402;42.004;23.088;2023-07-24T00:27:08;26.58;;;13.65;;
39728;SDS011;25402;42.004;23.088;2023-07-24T00:29:36;23.73;;;12.77;;
39728;SDS011;25402;42.004;23.088;2023-07-24T00:32:03;25.40;;;12.95;;
39728;SDS011;25402;42.004;23.088;2023-07-24T00:34:30;23.02;;;12.13;;
39728;SDS011;25402;42.004;23.088;2023-07-24T00:36:57;26.30;;;14.45;;
39728;SDS011;25402;42.004;23.088;2023-07-24T00:39:24;23.23;;;13.43;;
39728;SDS011;25402;42.004;23.088;2023-07-24T00:41:53;26.67;;;12.98;;
39728;SDS011;25402;42.004;23.088;2023-07-24T00:44:20;21.40;;;12.07;;
39728;SDS011;25402;42.004;23.088;2023-07-24T00:46:49;26.70;;;13.48;;
39728;SDS011;25402;42.004;23.088;2023-07-24T00:49:16;22.40;;;11.85;;
39728;SDS011;25402;42.004;23.088;2023-07-24T00:51:43;21.98;;;12.23;;
39728;SDS011;25402;42.004;23.088;2023-07-24T00:54:11;22.58;;;13.23;;
39728;SDS011;25402;42.004;23.088;2023-07-24T00:56:42;22.10;;;13.00;;
39728;SDS011;25402;42.004;23.088;2023-07-24T00:59:11;23.52;;;12.52;;
39728;SDS011;25402;42.004;23.088;2023-07-24T01:01:38;22.77;;;12.93;;
39728;SDS011;25402;42.004;23.088;2023-07-24T01:04:09;23.90;;;12.88;;
39728;SDS011;25402;42.004;23.088;2023-07-24T01:06:36;24.90;;;13.20;;
39728;SDS011;25402;42.004;23.088;2023-07-24T01:09:03;24.98;;;13.30;;
39728;SDS011;25402;42.004;23.088;2023-07-24T01:11:32;21.33;;;12.27;;
39728;SDS011;25402;42.004;23.088;2023-07-24T01:14:07;21.48;;;12.68;;
39728;SDS011;25402;42.004;23.088;2023-07-24T01:16:41;21.45;;;12.30;;
39728;SDS011;25402;42.004;23.088;2023-07-24T01:19:16;25.30;;;12.45;;
39728;SDS011;25402;42.004;23.088;2023-07-24T01:21:58;24.90;;;12.52;;
39728;SDS011;25402;42.004;23.088;2023-07-24T01:24:30;21.98;;;12.48;;
39728;SDS011;25402;42.004;23.088;2023-07-24T01:27:04;20.75;;;12.13;;
39728;SDS011;25402;42.004;23.088;2023-07-24T01:29:33;24.02;;;12.40;;
39728;SDS011;25402;42.004;23.088;2023-07-24T01:32:00;22.10;;;12.40;;
39728;SDS011;25402;42.004;23.088;2023-07-24T01:34:28;22.48;;;12.27;;
39728;SDS011;25402;42.004;23.088;2023-07-24T01:36:55;23.40;;;11.75;;
39728;SDS011;25402;42.004;23.088;2023-07-24T01:39:22;21.23;;;11.55;;
39728;SDS011;25402;42.004;23.088;2023-07-24T01:41:50;22.38;;;11.90;;
39728;SDS011;25402;42.004;23.088;2023-07-24T01:44:19;20.35;;;11.70;;
39728;SDS011;25402;42.004;23.088;2023-07-24T01:46:46;21.98;;;12.20;;
39728;SDS011;25402;42.004;23.088;2023-07-24T01:49:12;24.02;;;12.00;;
39728;SDS011;25402;42.004;23.088;2023-07-24T01:51:39;25.63;;;13.85;;
39728;SDS011;25402;42.004;23.088;2023-07-24T01:54:06;25.15;;;12.40;;
39728;SDS011;25402;42.004;23.088;2023-07-24T01:56:35;24.60;;;12.77;;
39728;SDS011;25402;42.004;23.088;2023-07-24T01:59:02;23.20;;;12.63;;
39728;SDS011;25402;42.004;23.088;2023-07-24T02:01:31;25.00;;;14.68;;
39728;SDS011;25402;42.004;23.088;2023-07-24T02:03:58;27.13;;;13.60;;
39728;SDS011;25402;42.004;23.088;2023-07-24T02:06:25;25.88;;;13.27;;
39728;SDS011;25402;42.004;23.088;2023-07-24T02:08:52;29.60;;;12.43;;
39728;SDS011;25402;42.004;23.088;2023-07-24T02:11:19;27.48;;;13.68;;
39728;SDS011;25402;42.004;23.088;2023-07-24T02:13:46;21.35;;;12.20;;
39728;SDS011;25402;42.004;23.088;2023-07-24T02:16:13;30.70;;;12.48;;
39728;SDS011;25402;42.004;23.088;2023-07-24T02:18:42;23.95;;;13.18;;
39728;SDS011;25402;42.004;23.088;2023-07-24T02:21:09;46.78;;;14.88;;
39728;SDS011;25402;42.004;23.088;2023-07-24T02:23:36;27.48;;;13.38;;
39728;SDS011;25402;42.004;23.088;2023-07-24T02:26:03;28.00;;;13.20;;
39728;SDS011;25402;42.004;23.088;2023-07-24T02:28:30;24.25;;;13.18;;
39728;SDS011;25402;42.004;23.088;2023-07-24T02:30:57;25.90;;;13.48;;
39728;SDS011;25402;42.004;23.088;2023-07-24T02:33:25;24.33;;;13.35;;
39728;SDS011;25402;42.004;23.088;2023-07-24T02:35:54;24.25;;;13.40;;
39728;SDS011;25402;42.004;23.088;2023-07-24T02:38:21;25.35;;;13.25;;
39728;SDS011;25402;42.004;23.088;2023-07-24T02:40:48;24.38;;;12.80;;
39728;SDS011;25402;42.004;23.088;2023-07-24T02:43:15;25.20;;;12.48;;
39728;SDS011;25402;42.004;23.088;2023-07-24T02:45:42;22.83;;;12.55;;
39728;SDS011;25402;42.004;23.088;2023-07-24T02:48:09;26.75;;;12.52;;
39728;SDS011;25402;42.004;23.088;2023-07-24T02:50:36;23.83;;;12.43;;
39728;SDS011;25402;42.004;23.088;2023-07-24T02:53:04;27.70;;;12.65;;
39728;SDS011;25402;42.004;23.088;2023-07-24T02:55:31;34.03;;;14.23;;
39728;SDS011;25402;42.004;23.088;2023-07-24T02:57:58;29.80;;;13.00;;
39728;SDS011;25402;42.004;23.088;2023-07-24T03:00:25;25.58;;;12.68;;
39728;SDS011;25402;42.004;23.088;2023-07-24T03:02:52;25.65;;;11.98;;
39728;SDS011;25402;42.004;23.088;2023-07-24T03:05:19;23.77;;;12.90;;
39728;SDS011;25402;42.004;23.088;2023-07-24T03:07:46;31.63;;;13.43;;
39728;SDS011;25402;42.004;23.088;2023-07-24T03:10:14;28.73;;;13.20;;
39728;SDS011;25402;42.004;23.088;2023-07-24T03:12:41;58.75;;;13.38;;
39728;SDS011;25402;42.004;23.088;2023-07-24T03:15:08;38.08;;;14.23;;
39728;SDS011;25402;42.004;23.088;2023-07-24T03:17:35;30.95;;;12.90;;
39728;SDS011;25402;42.004;23.088;2023-07-24T03:20:09;29.27;;;13.20;;
39728;SDS011;25402;42.004;23.088;2023-07-24T03:22:36;23.10;;;12.60;;
39728;SDS011;25402;42.004;23.088;2023-07-24T03:25:03;25.48;;;12.52;;
39728;SDS011;25402;42.004;23.088;2023-07-24T03:27:32;25.08;;;13.82;;
39728;SDS011;25402;42.004;23.088;2023-07-24T03:29:59;23.45;;;12.13;;
39728;SDS011;25402;42.004;23.088;2023-07-24T03:32:26;25.55;;;13.05;;
39728;SDS011;25402;42.004;23.088;2023-07-24T03:34:53;32.63;;;12.90;;
39728;SDS011;25402;42.004;23.088;2023-07-24T03:37:20;26.65;;;13.15;;
39728;SDS011;25402;42.004;23.088;2023-07-24T03:39:47;25.45;;;11.93;;
39728;SDS011;25402;42.004;23.088;2023-07-24T03:42:23;23.75;;;11.95;;
39728;SDS011;25402;42.004;23.088;2023-07-24T03:44:54;28.15;;;12.73;;
39728;SDS011;25402;42.004;23.088;2023-07-24T03:47:21;40.80;;;13.05;;
39728;SDS011;25402;42.004;23.088;2023-07-24T03:49:48;43.75;;;13.38;;
39728;SDS011;25402;42.004;23.088;2023-07-24T03:52:16;30.77;;;8.18;;
39728;SDS011;25402;42.004;23.088;2023-07-24T03:54:43;27.73;;;9.13;;
39728;SDS011;25402;42.004;23.088;2023-07-24T03:57:10;30.63;;;10.77;;
39728;SDS011;25402;42.004;23.088;2023-07-24T03:59:37;31.13;;;10.90;;
39728;SDS011;25402;42.004;23.088;2023-07-24T04:02:06;41.38;;;13.35;;
39728;SDS011;25402;42.004;23.088;2023-07-24T04:04:33;30.20;;;12.48;;
39728;SDS011;25402;42.004;23.088;2023-07-24T04:07:00;30.23;;;14.88;;
39728;SDS011;25402;42.004;23.088;2023-07-24T04:09:27;36.92;;;14.95;;
39728;SDS011;25402;42.004;23.088;2023-07-24T04:11:54;54.47;;;18.17;;
39728;SDS011;25402;42.004;23.088;2023-07-24T04:14:21;52.67;;;16.42;;
39728;SDS011;25402;42.004;23.088;2023-07-24T04:16:48;45.13;;;14.68;;
39728;SDS011;25402;42.004;23.088;2023-07-24T04:19:16;34.60;;;14.13;;
39728;SDS011;25402;42.004;23.088;2023-07-24T04:21:43;50.08;;;14.35;;
39728;SDS011;25402;42.004;23.088;2023-07-24T04:24:10;32.15;;;13.18;;
39728;SDS011;25402;42.004;23.088;2023-07-24T04:26:37;35.55;;;13.13;;
39728;SDS011;25402;42.004;23.088;2023-07-24T04:29:05;39.97;;;13.55;;
39728;SDS011;25402;42.004;23.088;2023-07-24T04:31:32;41.88;;;13.43;;
39728;SDS011;25402;42.004;23.088;2023-07-24T04:33:59;43.33;;;13.40;;
39728;SDS011;25402;42.004;23.088;2023-07-24T04:36:28;41.53;;;13.05;;
39728;SDS011;25402;42.004;23.088;2023-07-24T04:38:54;28.58;;;13.20;;
39728;SDS011;25402;42.004;23.088;2023-07-24T04:41:21;30.50;;;14.07;;
39728;SDS011;25402;42.004;23.088;2023-07-24T04:43:48;32.92;;;13.93;;
39728;SDS011;25402;42.004;23.088;2023-07-24T04:46:15;29.90;;;14.32;;
39728;SDS011;25402;42.004;23.088;2023-07-24T04:48:42;33.75;;;14.10;;
39728;SDS011;25402;42.004;23.088;2023-07-24T04:51:09;36.28;;;15.27;;
39728;SDS011;25402;42.004;23.088;2023-07-24T04:53:37;30.48;;;13.80;;
39728;SDS011;25402;42.004;23.088;2023-07-24T04:56:04;105.55;;;16.50;;
39728;SDS011;25402;42.004;23.088;2023-07-24T04:58:32;28.75;;;13.30;;
39728;SDS011;25402;42.004;23.088;2023-07-24T05:01:06;45.05;;;14.45;;
39728;SDS011;25402;42.004;23.088;2023-07-24T05:03:37;45.78;;;14.15;;
39728;SDS011;25402;42.004;23.088;2023-07-24T05:06:19;44.20;;;12.73;;
39728;SDS011;25402;42.004;23.088;2023-07-24T05:08:49;89.90;;;15.75;;
39728;SDS011;25402;42.004;23.088;2023-07-24T05:11:16;24.67;;;12.68;;
39728;SDS011;25402;42.004;23.088;2023-07-24T05:13:43;55.78;;;13.63;;
39728;SDS011;25402;42.004;23.088;2023-07-24T05:16:10;31.15;;;13.82;;
39728;SDS011;25402;42.004;23.088;2023-07-24T05:18:38;27.38;;;14.20;;
39728;SDS011;25402;42.004;23.088;2023-07-24T05:21:06;34.00;;;13.77;;
39728;SDS011;25402;42.004;23.088;2023-07-24T05:23:33;26.10;;;12.98;;
39728;SDS011;25402;42.004;23.088;2023-07-24T05:26:01;24.52;;;13.82;;
39728;SDS011;25402;42.004;23.088;2023-07-24T05:28:30;27.08;;;13.15;;
39728;SDS011;25402;42.004;23.088;2023-07-24T05:30:59;29.77;;;13.80;;
39728;SDS011;25402;42.004;23.088;2023-07-24T05:33:27;26.45;;;14.68;;
39728;SDS011;25402;42.004;23.088;2023-07-24T05:35:57;67.78;;;15.68;;
39728;SDS011;25402;42.004;23.088;2023-07-24T05:38:24;22.80;;;13.73;;
39728;SDS011;25402;42.004;23.088;2023-07-24T05:40:54;23.35;;;13.02;;
39728;SDS011;25402;42.004;23.088;2023-07-24T05:43:25;24.27;;;12.95;;
39728;SDS011;25402;42.004;23.088;2023-07-24T05:45:53;25.65;;;13.48;;
39728;SDS011;25402;42.004;23.088;2023-07-24T05:48:22;28.05;;;13.48;;
39728;SDS011;25402;42.004;23.088;2023-07-24T05:50:49;18.70;;;13.23;;
39728;SDS011;25402;42.004;23.088;2023-07-24T05:53:17;28.33;;;12.88;;
39728;SDS011;25402;42.004;23.088;2023-07-24T05:55:44;24.98;;;13.77;;
39728;SDS011;25402;42.004;23.088;2023-07-24T05:58:11;25.50;;;12.93;;
39728;SDS011;25402;42.004;23.088;2023-07-24T06:00:39;29.77;;;13.48;;
39728;SDS011;25402;42.004;23.088;2023-07-24T06:03:06;34.65;;;13.32;;
39728;SDS011;25402;42.004;23.088;2023-07-24T06:05:33;24.15;;;13.13;;
39728;SDS011;25402;42.004;23.088;2023-07-24T06:08:00;25.13;;;12.93;;
39728;SDS011;25402;42.004;23.088;2023-07-24T06:10:34;33.63;;;14.23;;
39728;SDS011;25402;42.004;23.088;2023-07-24T06:13:01;26.38;;;12.95;;
39728;SDS011;25402;42.004;23.088;2023-07-24T06:15:28;49.55;;;15.38;;
39728;SDS011;25402;42.004;23.088;2023-07-24T06:17:56;32.03;;;13.25;;
39728;SDS011;25402;42.004;23.088;2023-07-24T06:20:23;32.30;;;13.63;;
39728;SDS011;25402;42.004;23.088;2023-07-24T06:22:50;26.92;;;12.95;;
39728;SDS011;25402;42.004;23.088;2023-07-24T06:25:17;32.53;;;13.27;;
39728;SDS011;25402;42.004;23.088;2023-07-24T06:27:44;24.75;;;13.38;;
39728;SDS011;25402;42.004;23.088;2023-07-24T06:30:11;23.63;;;13.50;;
39728;SDS011;25402;42.004;23.088;2023-07-24T06:32:38;30.52;;;14.00;;
39728;SDS011;25402;42.004;23.088;2023-07-24T06:35:07;29.48;;;13.95;;
39728;SDS011;25402;42.004;23.088;2023-07-24T06:37:37;23.83;;;13.25;;
39728;SDS011;25402;42.004;23.088;2023-07-24T06:40:04;35.42;;;13.27;;
39728;SDS011;25402;42.004;23.088;2023-07-24T06:42:33;31.73;;;14.10;;
39728;SDS011;25402;42.004;23.088;2023-07-24T06:45:06;25.77;;;14.20;;
39728;SDS011;25402;42.004;23.088;2023-07-24T06:47:34;33.47;;;14.43;;
39728;SDS011;25402;42.004;23.088;2023-07-24T06:50:01;36.10;;;14.38;;
39728;SDS011;25402;42.004;23.088;2023-07-24T06:52:31;33.55;;;14.32;;
39728;SDS011;25402;42.004;23.088;2023-07-24T06:54:58;25.80;;;14.55;;
39728;SDS011;25402;42.004;23.088;2023-07-24T06:57:26;26.77;;;14.13;;
39728;SDS011;25402;42.004;23.088;2023-07-24T06:59:53;30.50;;;13.43;;
39728;SDS011;25402;42.004;23.088;2023-07-24T07:02:20;35.55;;;14.30;;
39728;SDS011;25402;42.004;23.088;2023-07-24T07:04:48;30.70;;;14.18;;
39728;SDS011;25402;42.004;23.088;2023-07-24T07:07:18;24.55;;;13.98;;
39728;SDS011;25402;42.004;23.088;2023-07-24T07:09:48;32.13;;;14.35;;
39728;SDS011;25402;42.004;23.088;2023-07-24T07:12:15;32.58;;;16.13;;
39728;SDS011;25402;42.004;23.088;2023-07-24T07:14:42;28.58;;;15.73;;
39728;SDS011;25402;42.004;23.088;2023-07-24T07:17:09;32.50;;;15.25;;
39728;SDS011;25402;42.004;23.088;2023-07-24T07:19:36;30.65;;;14.88;;
39728;SDS011;25402;42.004;23.088;2023-07-24T07:22:05;33.25;;;14.27;;
39728;SDS011;25402;42.004;23.088;2023-07-24T07:24:33;31.05;;;14.15;;
39728;SDS011;25402;42.004;23.088;2023-07-24T07:27:01;23.75;;;13.50;;
39728;SDS011;25402;42.004;23.088;2023-07-24T07:29:28;22.00;;;13.30;;
39728;SDS011;25402;42.004;23.088;2023-07-24T07:31:56;22.35;;;13.38;;
39728;SDS011;25402;42.004;23.088;2023-07-24T07:34:23;24.52;;;13.77;;
39728;SDS011;25402;42.004;23.088;2023-07-24T07:36:50;27.80;;;13.88;;
39728;SDS011;25402;42.004;23.088;2023-07-24T07:39:19;26.25;;;13.73;;
39728;SDS011;25402;42.004;23.088;2023-07-24T07:41:46;22.40;;;13.48;;
39728;SDS011;25402;42.004;23.088;2023-07-24T07:44:17;23.83;;;13.10;;
39728;SDS011;25402;42.004;23.088;2023-07-24T07:46:49;28.23;;;13.55;;
39728;SDS011;25402;42.004;23.088;2023-07-24T07:49:16;26.30;;;13.43;;
39728;SDS011;25402;42.004;23.088;2023-07-24T07:51:43;21.25;;;13.00;;
39728;SDS011;25402;42.004;23.088;2023-07-24T07:54:09;28.08;;;13.18;;
39728;SDS011;25402;42.004;23.088;2023-07-24T07:56:36;30.85;;;13.45;;
39728;SDS011;25402;42.004;23.088;2023-07-24T07:59:03;24.98;;;13.20;;
39728;SDS011;25402;42.004;23.088;2023-07-24T08:01:32;26.85;;;13.40;;
39728;SDS011;25402;42.004;23.088;2023-07-24T08:04:01;21.30;;;13.57;;
39728;SDS011;25402;42.004;23.088;2023-07-24T08:06:28;24.77;;;13.20;;
39728;SDS011;25402;42.004;23.088;2023-07-24T08:08:55;34.92;;;13.40;;
39728;SDS011;25402;42.004;23.088;2023-07-24T08:11:23;27.42;;;13.30;;
39728;SDS011;25402;42.004;23.088;2023-07-24T08:13:50;25.65;;;13.95;;
39728;SDS011;25402;42.004;23.088;2023-07-24T08:16:17;29.63;;;12.60;;
39728;SDS011;25402;42.004;23.088;2023-07-24T08:18:46;25.23;;;12.35;;
39728;SDS011;25402;42.004;23.088;2023-07-24T08:21:14;23.10;;;13.70;;
39728;SDS011;25402;42.004;23.088;2023-07-24T08:23:41;28.35;;;13.68;;
39728;SDS011;25402;42.004;23.088;2023-07-24T08:26:08;21.48;;;13.85;;
39728;SDS011;25402;42.004;23.088;2023-07-24T08:28:36;27.13;;;13.25;;
39728;SDS011;25402;42.004;23.088;2023-07-24T08:31:07;25.33;;;13.88;;
39728;SDS011;25402;42.004;23.088;2023-07-24T08:33:34;28.65;;;13.70;;
39728;SDS011;25402;42.004;23.088;2023-07-24T08:36:03;28.02;;;14.00;;
39728;SDS011;25402;42.004;23.088;2023-07-24T08:38:31;26.08;;;13.05;;
39728;SDS011;25402;42.004;23.088;2023-07-24T08:41:04;36.35;;;13.90;;
39728;SDS011;25402;42.004;23.088;2023-07-24T08:43:32;30.63;;;13.18;;
39728;SDS011;25402;42.004;23.088;2023-07-24T08:46:01;26.30;;;12.70;;
39728;SDS011;25402;42.004;23.088;2023-07-24T08:48:29;24.38;;;12.48;;
39728;SDS011;25402;42.004;23.088;2023-07-24T08:51:00;27.05;;;13.30;;
39728;SDS011;25402;42.004;23.088;2023-07-24T08:53:30;27.50;;;13.02;;
39728;SDS011;25402;42.004;23.088;2023-07-24T08:55:59;24.75;;;12.50;;
39728;SDS011;25402;42.004;23.088;2023-07-24T08:58:27;26.13;;;13.07;;
39728;SDS011;25402;42.004;23.088;2023-07-24T09:00:55;20.85;;;12.48;;
39728;SDS011;25402;42.004;23.088;2023-07-24T09:03:23;21.17;;;11.75;;
39728;SDS011;25402;42.004;23.088;2023-07-24T09:05:51;24.42;;;12.25;;
39728;SDS011;25402;42.004;23.088;2023-07-24T09:08:29;24.27;;;12.85;;
39728;SDS011;25402;42.004;23.088;2023-07-24T09:11:00;26.48;;;13.55;;
39728;SDS011;25402;42.004;23.088;2023-07-24T09:13:29;28.33;;;13.63;;
39728;SDS011;25402;42.004;23.088;2023-07-24T09:15:56;22.77;;;12.90;;
39728;SDS011;25402;42.004;23.088;2023-07-24T09:18:24;29.63;;;14.07;;
39728;SDS011;25402;42.004;23.088;2023-07-24T09:20:51;30.13;;;14.27;;
39728;SDS011;25402;42.004;23.088;2023-07-24T09:23:28;39.05;;;15.35;;
39728;SDS011;25402;42.004;23.088;2023-07-24T09:25:56;28.60;;;14.25;;
39728;SDS011;25402;42.004;23.088;2023-07-24T09:28:23;23.88;;;14.00;;
39728;SDS011;25402;42.004;23.088;2023-07-24T09:30:53;23.98;;;14.00;;
39728;SDS011;25402;42.004;23.088;2023-07-24T09:35:57;22.98;;;12.35;;
39728;SDS011;25402;42.004;23.088;2023-07-24T09:38:24;18.65;;;12.55;;
39728;SDS011;25402;42.004;23.088;2023-07-24T09:40:53;25.95;;;13.52;;
39728;SDS011;25402;42.004;23.088;2023-07-24T09:43:21;22.95;;;13.50;;
39728;SDS011;25402;42.004;23.088;2023-07-24T09:45:49;19.88;;;12.77;;
39728;SDS011;25402;42.004;23.088;2023-07-24T09:48:18;26.08;;;13.23;;
39728;SDS011;25402;42.004;23.088;2023-07-24T09:50:46;22.38;;;13.23;;
39728;SDS011;25402;42.004;23.088;2023-07-24T09:53:17;24.67;;;13.80;;
39728;SDS011;25402;42.004;23.088;2023-07-24T09:55:49;19.27;;;12.40;;
39728;SDS011;25402;42.004;23.088;2023-07-24T10:00:47;25.83;;;12.60;;
39728;SDS011;25402;42.004;23.088;2023-07-24T10:03:15;23.63;;;12.55;;
39728;SDS011;25402;42.004;23.088;2023-07-24T10:05:43;21.05;;;13.30;;
39728;SDS011;25402;42.004;23.088;2023-07-24T10:08:11;20.98;;;12.35;;
39728;SDS011;25402;42.004;23.088;2023-07-24T10:10:40;19.23;;;11.73;;
39728;SDS011;25402;42.004;23.088;2023-07-24T10:13:09;20.38;;;11.13;;
39728;SDS011;25402;42.004;23.088;2023-07-24T10:15:40;17.42;;;11.98;;
39728;SDS011;25402;42.004;23.088;2023-07-24T10:18:08;22.92;;;11.57;;
39728;SDS011;25402;42.004;23.088;2023-07-24T10:20:37;19.58;;;11.23;;
39728;SDS011;25402;42.004;23.088;2023-07-24T10:23:05;21.10;;;11.90;;
39728;SDS011;25402;42.004;23.088;2023-07-24T10:25:38;21.17;;;12.15;;
39728;SDS011;25402;42.004;23.088;2023-07-24T10:28:17;19.60;;;11.40;;
39728;SDS011;25402;42.004;23.088;2023-07-24T10:30:54;28.45;;;11.80;;
39728;SDS011;25402;42.004;23.088;2023-07-24T10:33:22;22.70;;;11.65;;
39728;SDS011;25402;42.004;23.088;2023-07-24T10:35:52;20.48;;;11.02;;
39728;SDS011;25402;42.004;23.088;2023-07-24T10:38:31;19.23;;;11.13;;
39728;SDS011;25402;42.004;23.088;2023-07-24T10:41:01;19.08;;;10.70;;
39728;SDS011;25402;42.004;23.088;2023-07-24T10:43:39;21.65;;;10.95;;
39728;SDS011;25402;42.004;23.088;2023-07-24T10:46:08;23.55;;;10.63;;
39728;SDS011;25402;42.004;23.088;2023-07-24T10:48:36;23.95;;;10.73;;
39728;SDS011;25402;42.004;23.088;2023-07-24T10:51:08;18.38;;;11.05;;
39728;SDS011;25402;42.004;23.088;2023-07-24T10:53:40;17.77;;;10.02;;
39728;SDS011;25402;42.004;23.088;2023-07-24T10:56:09;16.70;;;9.90;;
39728;SDS011;25402;42.004;23.088;2023-07-24T10:58:36;22.85;;;9.80;;
39728;SDS011;25402;42.004;23.088;2023-07-24T11:01:03;12.45;;;8.82;;
39728;SDS011;25402;42.004;23.088;2023-07-24T11:03:32;23.63;;;8.80;;
39728;SDS011;25402;42.004;23.088;2023-07-24T11:06:02;14.02;;;8.20;;
39728;SDS011;25402;42.004;23.088;2023-07-24T11:08:31;15.50;;;8.05;;
39728;SDS011;25402;42.004;23.088;2023-07-24T11:10:59;15.68;;;8.45;;
39728;SDS011;25402;42.004;23.088;2023-07-24T11:13:28;35.95;;;8.88;;
39728;SDS011;25402;42.004;23.088;2023-07-24T11:15:56;19.20;;;8.15;;
39728;SDS011;25402;42.004;23.088;2023-07-24T11:18:23;46.42;;;9.15;;
39728;SDS011;25402;42.004;23.088;2023-07-24T11:20:55;14.98;;;7.32;;
39728;SDS011;25402;42.004;23.088;2023-07-24T11:23:26;19.77;;;8.80;;
39728;SDS011;25402;42.004;23.088;2023-07-24T11:25:57;13.18;;;8.35;;
39728;SDS011;25402;42.004;23.088;2023-07-24T11:28:25;19.80;;;8.48;;
39728;SDS011;25402;42.004;23.088;2023-07-24T11:30:52;16.45;;;8.55;;
39728;SDS011;25402;42.004;23.088;2023-07-24T11:33:20;18.50;;;8.15;;
39728;SDS011;25402;42.004;23.088;2023-07-24T11:35:48;24.42;;;8.00;;
39728;SDS011;25402;42.004;23.088;2023-07-24T11:38:16;10.65;;;7.10;;
39728;SDS011;25402;42.004;23.088;2023-07-24T11:40:43;22.00;;;7.97;;
39728;SDS011;25402;42.004;23.088;2023-07-24T11:43:17;15.02;;;7.28;;
39728;SDS011;25402;42.004;23.088;2023-07-24T11:45:46;14.60;;;7.60;;
39728;SDS011;25402;42.004;23.088;2023-07-24T11:48:17;19.38;;;7.15;;
39728;SDS011;25402;42.004;23.088;2023-07-24T11:50:46;40.40;;;8.38;;
39728;SDS011;25402;42.004;23.088;2023-07-24T11:53:24;19.77;;;7.97;;
39728;SDS011;25402;42.004;23.088;2023-07-24T11:55:53;14.00;;;8.00;;
39728;SDS011;25402;42.004;23.088;2023-07-24T11:58:24;32.30;;;8.98;;
39728;SDS011;25402;42.004;23.088;2023-07-24T12:00:52;23.42;;;8.10;;
39728;SDS011;25402;42.004;23.088;2023-07-24T12:03:19;137.20;;;18.38;;
39728;SDS011;25402;42.004;23.088;2023-07-24T12:05:47;17.38;;;7.25;;
39728;SDS011;25402;42.004;23.088;2023-07-24T12:08:16;31.10;;;10.18;;
39728;SDS011;25402;42.004;23.088;2023-07-24T12:10:46;22.30;;;9.30;;
39728;SDS011;25402;42.004;23.088;2023-07-24T12:13:13;24.10;;;13.07;;
39728;SDS011;25402;42.004;23.088;2023-07-24T12:15:40;19.42;;;9.07;;
39728;SDS011;25402;42.004;23.088;2023-07-24T12:18:09;17.15;;;7.65;;
39728;SDS011;25402;42.004;23.088;2023-07-24T12:20:36;14.35;;;7.57;;
39728;SDS011;25402;42.004;23.088;2023-07-24T12:23:04;14.27;;;7.68;;
39728;SDS011;25402;42.004;23.088;2023-07-24T12:25:31;18.77;;;7.68;;
39728;SDS011;25402;42.004;23.088;2023-07-24T12:27:59;11.85;;;7.80;;
39728;SDS011;25402;42.004;23.088;2023-07-24T12:30:26;11.43;;;7.07;;
39728;SDS011;25402;42.004;23.088;2023-07-24T12:32:53;11.43;;;7.25;;
39728;SDS011;25402;42.004;23.088;2023-07-24T12:35:20;14.90;;;7.70;;
39728;SDS011;25402;42.004;23.088;2023-07-24T12:37:47;13.23;;;7.68;;
39728;SDS011;25402;42.004;23.088;2023-07-24T12:40:14;22.20;;;7.45;;
39728;SDS011;25402;42.004;23.088;2023-07-24T12:42:41;17.00;;;6.97;;
39728;SDS011;25402;42.004;23.088;2023-07-24T12:45:10;18.17;;;8.70;;
39728;SDS011;25402;42.004;23.088;2023-07-24T12:47:37;19.90;;;8.48;;
39728;SDS011;25402;42.004;23.088;2023-07-24T12:50:04;16.05;;;7.43;;
39728;SDS011;25402;42.004;23.088;2023-07-24T12:52:31;19.10;;;8.05;;
39728;SDS011;25402;42.004;23.088;2023-07-24T12:54:58;13.77;;;8.02;;
39728;SDS011;25402;42.004;23.088;2023-07-24T12:57:26;16.30;;;8.00;;
39728;SDS011;25402;42.004;23.088;2023-07-24T12:59:54;39.10;;;9.65;;
39728;SDS011;25402;42.004;23.088;2023-07-24T13:02:25;17.15;;;7.82;;
39728;SDS011;25402;42.004;23.088;2023-07-24T13:04:53;20.27;;;7.65;;
39728;SDS011;25402;42.004;23.088;2023-07-24T13:07:20;14.68;;;7.43;;
39728;SDS011;25402;42.004;23.088;2023-07-24T13:09:49;13.30;;;7.65;;
39728;SDS011;25402;42.004;23.088;2023-07-24T13:12:21;31.70;;;8.38;;
39728;SDS011;25402;42.004;23.088;2023-07-24T13:14:49;14.90;;;7.85;;
39728;SDS011;25402;42.004;23.088;2023-07-24T13:17:16;16.23;;;8.15;;
39728;SDS011;25402;42.004;23.088;2023-07-24T13:19:44;17.48;;;7.70;;
39728;SDS011;25402;42.004;23.088;2023-07-24T13:22:11;17.90;;;7.45;;
39728;SDS011;25402;42.004;23.088;2023-07-24T13:24:38;13.63;;;7.82;;
39728;SDS011;25402;42.004;23.088;2023-07-24T13:27:06;18.55;;;8.10;;
39728;SDS011;25402;42.004;23.088;2023-07-24T13:29:34;24.30;;;7.97;;
39728;SDS011;25402;42.004;23.088;2023-07-24T13:32:01;17.33;;;7.32;;
39728;SDS011;25402;42.004;23.088;2023-07-24T13:34:28;18.17;;;7.70;;
39728;SDS011;25402;42.004;23.088;2023-07-24T13:36:56;14.65;;;7.50;;
39728;SDS011;25402;42.004;23.088;2023-07-24T13:39:23;12.57;;;7.20;;
39728;SDS011;25402;42.004;23.088;2023-07-24T13:41:53;12.32;;;7.05;;
39728;SDS011;25402;42.004;23.088;2023-07-24T13:44:21;14.57;;;7.47;;
39728;SDS011;25402;42.004;23.088;2023-07-24T13:46:49;25.10;;;7.95;;
39728;SDS011;25402;42.004;23.088;2023-07-24T13:49:16;18.05;;;7.45;;
39728;SDS011;25402;42.004;23.088;2023-07-24T13:51:43;14.98;;;7.13;;
39728;SDS011;25402;42.004;23.088;2023-07-24T13:54:12;23.70;;;7.50;;
39728;SDS011;25402;42.004;23.088;2023-07-24T13:56:39;20.48;;;7.50;;
39728;SDS011;25402;42.004;23.088;2023-07-24T13:59:06;16.50;;;7.70;;
39728;SDS011;25402;42.004;23.088;2023-07-24T14:01:33;37.50;;;9.77;;
39728;SDS011;25402;42.004;23.088;2023-07-24T14:04:00;40.10;;;11.10;;
39728;SDS011;25402;42.004;23.088;2023-07-24T14:06:27;27.13;;;8.90;;
39728;SDS011;25402;42.004;23.088;2023-07-24T14:08:54;33.78;;;9.73;;
39728;SDS011;25402;42.004;23.088;2023-07-24T14:11:23;27.35;;;8.82;;
39728;SDS011;25402;42.004;23.088;2023-07-24T14:13:52;30.02;;;8.52;;
39728;SDS011;25402;42.004;23.088;2023-07-24T14:16:18;21.83;;;8.10;;
39728;SDS011;25402;42.004;23.088;2023-07-24T14:18:45;36.15;;;9.65;;
39728;SDS011;25402;42.004;23.088;2023-07-24T14:21:13;67.88;;;14.35;;